Time;durP1;ratioP1;P1;durP2;ratioP2;P2;SDS_P1;SDS_P2;PMS_P1;PMS_P2;Temp;Humidity;BMP_temperature;BMP_pressure;BME280_temperature;BME280_humidity;BME280_pressure;Samples;Min_cycle;Max_cycle;Signal;HPM_P1;HPM_P2
2022/05/22 07:55:21;;;;;;;8.10;5.90;;;31.60;96.30;;;;;;5763412;24;20023;31
2022/05/22 07:58:11;;;;;;;6.30;5.63;;;31.80;96.30;;;;;;4738856;30;20060;-91
2022/05/22 08:00:46;;;;;;;6.47;5.80;;;31.80;96.20;;;;;;4739347;30;20098;-90
2022/05/22 08:03:29;;;;;;;9.30;5.85;;;32.20;96.00;;;;;;4723578;30;20045;-89
2022/05/22 08:06:00;;;;;;;11.15;5.70;;;31.90;96.50;;;;;;4736670;30;20033;-93
2022/05/22 08:08:31;;;;;;;8.98;5.40;;;31.90;96.60;;;;;;4720954;30;20064;-92
2022/05/22 08:11:13;;;;;;;9.13;5.72;;;32.20;96.90;;;;;;4735050;30;20044;-91
2022/05/22 08:13:52;;;;;;;8.10;5.35;;;32.40;96.40;;;;;;4735050;30;20574;-93
2022/05/22 08:16:30;;;;;;;7.03;6.30;;;32.40;96.80;;;;;;4733456;30;20040;-90
2022/05/22 08:19:06;;;;;;;7.80;6.38;;;32.70;96.80;;;;;;4736081;30;20037;-93
2022/05/22 08:21:39;;;;;;;7.85;5.20;;;32.30;97.10;;;;;;4734872;30;20191;-91
2022/05/22 08:24:12;;;;;;;5.68;5.18;;;31.80;97.20;;;;;;4734163;30;20541;-90
2022/05/22 08:26:41;;;;;;;6.20;5.15;;;31.50;97.50;;;;;;4720381;30;20036;-90
2022/05/22 08:29:08;;;;;;;9.07;5.05;;;31.70;97.50;;;;;;4720353;30;20124;-92
2022/05/22 08:31:42;;;;;;;7.30;5.95;;;31.30;97.90;;;;;;4719660;30;20054;-91
2022/05/22 08:34:11;;;;;;;9.00;5.75;;;31.10;98.10;;;;;;4734539;30;20511;-90
2022/05/22 08:36:38;;;;;;;8.20;5.50;;;31.40;97.20;;;;;;4722087;30;20041;-92
2022/05/22 08:39:05;;;;;;;8.43;5.47;;;31.30;97.10;;;;;;4720317;30;20123;-90
2022/05/22 08:41:40;;;;;;;5.53;4.82;;;31.10;97.40;;;;;;4720790;30;20033;-91
2022/05/22 08:44:21;;;;;;;7.22;4.93;;;30.70;97.80;;;;;;4736023;30;20043;-91
2022/05/22 08:47:06;;;;;;;8.85;5.63;;;30.70;97.80;;;;;;4735186;30;20040;-91
2022/05/22 08:49:43;;;;;;;7.15;4.78;;;30.90;97.10;;;;;;4720545;30;20389;-90
2022/05/22 08:52:26;;;;;;;7.00;5.07;;;30.70;96.90;;;;;;4720312;30;20044;-92
2022/05/22 08:55:09;;;;;;;6.22;4.72;;;30.50;97.40;;;;;;4720816;30;20071;-90
2022/05/22 09:01:15;;;;;;;10.60;5.10;;;31.10;96.90;;;;;;4682206;30;20057;-91
2022/05/22 09:04:10;;;;;;;5.80;5.28;;;31.20;96.40;;;;;;4667718;30;20054;-90
2022/05/22 09:07:03;;;;;;;5.75;5.25;;;31.50;96.50;;;;;;4705975;30;20043;-90
2022/05/22 09:09:36;;;;;;;10.07;5.10;;;31.70;96.40;;;;;;4737541;30;20040;-93
2022/05/22 09:12:26;;;;;;;7.93;5.15;;;31.30;96.60;;;;;;4723454;30;20128;-93
2022/05/22 09:15:14;;;;;;;6.20;4.85;;;31.30;96.80;;;;;;4723001;30;20040;-92
2022/05/22 09:18:04;;;;;;;7.25;5.03;;;30.80;96.70;;;;;;4737755;30;20036;-92
2022/05/22 09:20:32;;;;;;;5.40;4.95;;;30.70;96.80;;;;;;4723286;30;20082;-91
2022/05/22 09:23:22;;;;;;;7.35;4.90;;;30.80;96.60;;;;;;4738388;30;20082;-91
2022/05/22 09:26:03;;;;;;;6.65;5.20;;;30.50;97.10;;;;;;4737547;30;20056;-93
2022/05/22 09:28:44;;;;;;;6.45;5.50;;;30.20;97.60;;;;;;4737742;30;20098;-91
2022/05/22 09:31:39;;;;;;;8.23;5.40;;;30.40;97.70;;;;;;4724277;30;20032;-91
2022/05/22 09:34:32;;;;;;;5.95;5.10;;;30.20;98.20;;;;;;4743066;30;20066;-91
2022/05/22 09:37:38;;;;;;;8.55;5.00;;;30.30;98.00;;;;;;4724318;30;20040;-94
2022/05/22 09:40:34;;;;;;;5.15;4.70;;;30.60;98.40;;;;;;4738875;30;20040;-90
2022/05/22 09:43:36;;;;;;;7.05;5.10;;;30.60;98.90;;;;;;4728874;30;20047;-92
2022/05/22 09:46:30;;;;;;;10.00;5.05;;;30.50;99.60;;;;;;4727217;30;20039;-89
2022/05/22 09:49:10;;;;;;;7.72;4.60;;;30.20;99.90;;;;;;4744263;30;20041;-90
2022/05/22 09:51:47;;;;;;;8.23;4.95;;;29.80;99.90;;;;;;4741938;30;20063;-91
2022/05/22 09:54:29;;;;;;;11.43;5.25;;;29.40;99.90;;;;;;4760760;30;20127;-91
2022/05/22 09:57:26;;;;;;;9.30;5.60;;;29.20;99.90;;;;;;4760984;30;20063;-91
2022/05/22 10:00:16;;;;;;;6.78;4.65;;;29.00;99.90;;;;;;4744147;30;20109;-90
2022/05/22 10:03:00;;;;;;;9.88;4.70;;;29.20;99.90;;;;;;4742645;30;20055;-92
2022/05/22 10:06:01;;;;;;;5.55;4.18;;;29.30;99.90;;;;;;4730979;30;20118;-91
2022/05/22 10:08:47;;;;;;;5.63;4.90;;;29.50;99.90;;;;;;4762841;30;20047;-91
2022/05/22 10:11:48;;;;;;;5.07;4.57;;;29.60;99.90;;;;;;4762020;30;20028;-90
2022/05/22 10:14:53;;;;;;;6.95;4.88;;;29.80;99.90;;;;;;4744839;30;20042;-91
2022/05/22 10:17:57;;;;;;;10.52;4.75;;;29.90;99.90;;;;;;4742334;30;20084;-91
2022/05/22 10:20:56;;;;;;;9.98;4.30;;;30.20;99.90;;;;;;4746881;30;20043;-91
2022/05/22 10:23:32;;;;;;;5.68;4.47;;;30.10;99.90;;;;;;4734181;30;20048;-92
2022/05/22 10:26:01;;;;;;;6.25;4.20;;;30.00;99.90;;;;;;4744104;30;20056;-91
2022/05/22 10:28:49;;;;;;;9.27;4.80;;;29.90;99.90;;;;;;4760876;30;20074;-92
2022/05/22 10:31:38;;;;;;;7.68;4.80;;;29.90;99.90;;;;;;4762843;30;20039;-91
2022/05/22 10:34:23;;;;;;;11.18;4.68;;;29.50;99.90;;;;;;4729458;30;20052;-92
2022/05/22 10:36:56;;;;;;;5.93;4.63;;;29.70;99.90;;;;;;4764582;30;20060;-91
2022/05/22 10:39:23;;;;;;;10.77;5.05;;;29.90;99.90;;;;;;4729533;30;20036;-91
2022/05/22 10:45:38;;;;;;;11.23;4.55;;;29.70;99.90;;;;;;4754769;30;20047;-92
2022/05/22 10:48:19;;;;;;;6.20;4.82;;;30.00;99.90;;;;;;4754703;30;20036;-92
2022/05/22 10:51:20;;;;;;;9.55;4.65;;;30.20;99.90;;;;;;4725131;30;20040;-92
2022/05/22 10:53:55;;;;;;;13.75;5.50;;;30.20;99.90;;;;;;4725867;30;20043;-92
2022/05/22 10:56:29;;;;;;;8.85;4.82;;;30.30;99.90;;;;;;4725458;30;20059;-90
2022/05/22 10:59:03;;;;;;;9.63;5.38;;;30.20;99.90;;;;;;4726375;30;20431;-91
2022/05/22 11:01:36;;;;;;;12.38;5.40;;;29.90;99.90;;;;;;4757003;30;20069;-92
2022/05/22 11:04:16;;;;;;;8.60;4.95;;;30.10;99.90;;;;;;4731944;30;20048;-91
2022/05/22 11:06:57;;;;;;;7.25;5.28;;;30.30;99.90;;;;;;4734080;30;20178;-93
2022/05/22 11:09:27;;;;;;;7.47;5.60;;;30.90;99.90;;;;;;4735438;30;20048;-91
2022/05/22 11:12:14;;;;;;;7.00;5.25;;;30.90;99.90;;;;;;4732319;30;20040;-91
2022/05/22 11:14:44;;;;;;;7.75;5.13;;;30.70;99.90;;;;;;4747923;30;20113;-91
2022/05/22 11:17:14;;;;;;;8.60;5.63;;;30.70;99.90;;;;;;4734077;30;20032;-91
2022/05/22 11:19:52;;;;;;;8.77;5.45;;;30.50;99.90;;;;;;4763030;30;20032;-91
2022/05/22 11:22:27;;;;;;;10.43;5.78;;;30.30;99.90;;;;;;4753771;30;20036;-93
2022/05/22 11:25:14;;;;;;;5.45;4.93;;;30.10;99.90;;;;;;4709577;30;20500;-93
2022/05/22 11:27:57;;;;;;;7.15;5.10;;;30.20;99.90;;;;;;4733667;30;20104;-91
2022/05/22 11:31:03;;;;;;;9.23;6.07;;;30.40;99.90;;;;;;4729998;30;20467;-91
2022/05/22 11:34:00;;;;;;;11.77;5.13;;;30.60;99.90;;;;;;4729706;30;20069;-92
2022/05/22 11:36:38;;;;;;;6.00;5.40;;;30.80;99.90;;;;;;4727641;30;20037;-92
2022/05/22 11:39:17;;;;;;;6.43;5.28;;;31.30;99.90;;;;;;4728515;30;20054;-92
2022/05/22 11:41:52;;;;;;;7.78;5.32;;;31.00;99.90;;;;;;4728481;30;20052;-93
2022/05/22 11:45:01;;;;;;;4.93;4.43;;;30.70;99.90;;;;;;4730371;30;20037;-91
2022/05/22 11:47:46;;;;;;;8.38;5.00;;;30.60;99.90;;;;;;4697644;30;20050;-94
2022/05/22 11:50:32;;;;;;;6.93;4.90;;;30.40;99.90;;;;;;4682031;30;20553;-91
2022/05/22 11:53:20;;;;;;;7.53;4.80;;;30.60;99.90;;;;;;4693126;30;20066;-91
2022/05/22 11:56:17;;;;;;;7.05;4.40;;;30.50;99.90;;;;;;4692626;30;20050;-91
2022/05/22 11:58:57;;;;;;;5.68;4.10;;;30.40;99.90;;;;;;4692785;30;20046;-91
2022/05/22 12:01:43;;;;;;;11.25;4.60;;;30.20;99.90;;;;;;4688481;30;20042;-92
2022/05/22 12:04:27;;;;;;;6.60;4.45;;;30.00;99.90;;;;;;4685518;30;20061;-92
2022/05/22 12:06:59;;;;;;;9.32;4.45;;;29.60;99.90;;;;;;4684601;30;20040;-91
2022/05/22 12:09:34;;;;;;;9.95;4.28;;;29.60;99.90;;;;;;4685137;30;20104;-91
2022/05/22 12:12:10;;;;;;;8.23;4.93;;;29.50;99.90;;;;;;4684514;30;20099;-93
2022/05/22 12:15:04;;;;;;;6.28;4.57;;;29.70;99.90;;;;;;4685636;30;20038;-92
2022/05/22 12:17:38;;;;;;;;;;;29.60;99.90;;;;;;4684183;30;20077;-91
2022/05/22 12:20:27;;;;;;;5.23;4.40;;;29.70;99.90;;;;;;4670682;30;19916;-91
2022/05/22 12:23:12;;;;;;;11.63;4.85;;;29.40;99.90;;;;;;4722830;30;20400;-92
2022/05/22 12:26:00;;;;;;;11.50;4.38;;;29.30;99.90;;;;;;4740026;30;20109;-93
2022/05/22 12:28:30;;;;;;;7.90;4.63;;;29.20;99.90;;;;;;4753841;30;20067;-92
2022/05/22 12:30:59;;;;;;;9.13;4.85;;;29.30;99.90;;;;;;4738602;30;20071;-92
2022/05/22 12:33:32;;;;;;;7.70;4.82;;;29.50;99.90;;;;;;4753252;30;20046;-91
2022/05/22 12:36:00;;;;;;;8.07;4.45;;;29.60;99.90;;;;;;4739675;30;20063;-92
2022/05/22 12:38:37;;;;;;;6.68;4.57;;;29.70;99.90;;;;;;4754479;30;20043;-92
2022/05/22 12:41:38;;;;;;;5.93;4.88;;;29.80;99.90;;;;;;4757587;30;20032;-93
2022/05/22 12:44:06;;;;;;;7.85;4.50;;;29.90;99.90;;;;;;4752468;30;20044;-92
2022/05/22 12:46:34;;;;;;;6.13;4.80;;;29.90;99.90;;;;;;4738256;30;20487;-92
2022/05/22 12:49:21;;;;;;;7.28;4.78;;;29.90;99.90;;;;;;4753509;30;20050;-91
2022/05/22 12:52:00;;;;;;;7.18;4.80;;;29.90;99.90;;;;;;4752831;30;20124;-91
2022/05/22 12:54:36;;;;;;;6.35;5.00;;;29.90;99.90;;;;;;4753204;30;20116;-92
2022/05/22 12:57:14;;;;;;;5.93;4.90;;;30.20;99.90;;;;;;4738730;30;20060;-91
2022/05/22 13:00:15;;;;;;;6.78;5.50;;;30.60;99.90;;;;;;4738049;30;20044;-91
2022/05/22 13:02:48;;;;;;;6.07;4.88;;;30.70;99.90;;;;;;4699463;30;20508;-91
2022/05/22 13:05:30;;;;;;;5.60;4.55;;;30.50;99.90;;;;;;4699731;30;20041;-92
2022/05/22 13:07:57;;;;;;;5.07;4.57;;;30.30;99.90;;;;;;4699506;30;20041;-91
2022/05/22 13:11:06;;;;;;;6.88;5.22;;;30.40;99.90;;;;;;4699867;30;20033;-92
2022/05/22 13:13:49;;;;;;;6.03;4.93;;;30.40;99.90;;;;;;4696371;30;20050;-91
2022/05/22 13:16:28;;;;;;;5.05;4.55;;;30.00;99.90;;;;;;4697049;30;20110;-89
2022/05/22 13:18:56;;;;;;;10.55;5.15;;;29.90;99.90;;;;;;4699674;30;20045;-91
2022/05/22 13:21:39;;;;;;;6.72;4.97;;;29.80;99.90;;;;;;4686276;30;20617;-91
2022/05/22 13:24:30;;;;;;;5.65;4.40;;;29.60;99.90;;;;;;4685577;30;20497;-91
2022/05/22 13:26:59;;;;;;;7.38;4.43;;;29.70;99.90;;;;;;4687041;30;20057;-91
2022/05/22 13:29:47;;;;;;;6.90;5.15;;;29.60;99.90;;;;;;4706415;30;20048;-91
2022/05/22 13:32:32;;;;;;;5.32;4.55;;;29.70;99.90;;;;;;4700947;30;20046;-93
2022/05/22 13:35:00;;;;;;;6.75;4.57;;;29.70;99.90;;;;;;4685079;30;20038;-92
2022/05/22 13:37:31;;;;;;;6.90;4.88;;;29.70;99.90;;;;;;4685419;30;20045;-92
2022/05/22 13:40:08;;;;;;;5.50;5.00;;;29.80;99.90;;;;;;4687939;30;20041;-91
2022/05/22 13:43:06;;;;;;;8.13;5.18;;;29.80;99.90;;;;;;4673522;30;20045;-90
2022/05/22 13:46:15;;;;;;;5.70;5.20;;;29.90;99.90;;;;;;4755408;30;20036;-90
2022/05/22 13:48:54;;;;;;;6.15;5.05;;;29.90;99.90;;;;;;4727195;30;20044;-92
2022/05/22 13:54:52;;;;;;;7.55;4.95;;;29.70;99.90;;;;;;4757008;30;20043;-90
2022/05/22 13:57:25;;;;;;;6.72;4.90;;;29.80;99.90;;;;;;4727159;30;20135;-91
2022/05/22 14:00:00;;;;;;;6.93;4.90;;;29.90;99.90;;;;;;4730105;30;20043;-91
2022/05/22 14:02:37;;;;;;;9.40;4.88;;;29.80;99.90;;;;;;4728429;30;20139;-92
2022/05/22 14:05:09;;;;;;;6.47;4.57;;;29.80;99.70;;;;;;4728312;30;20060;-90
2022/05/22 14:07:53;;;;;;;6.55;4.82;;;29.80;99.90;;;;;;4727906;30;20036;-90
2022/05/22 14:10:35;;;;;;;9.38;5.15;;;29.60;99.90;;;;;;4727154;30;20032;-91
2022/05/22 14:13:28;;;;;;;6.20;5.07;;;29.50;99.90;;;;;;4726945;30;20036;-89
2022/05/22 14:16:04;;;;;;;6.70;4.80;;;29.40;99.90;;;;;;4739052;30;20051;-90
2022/05/22 14:18:34;;;;;;;6.18;4.82;;;29.50;99.90;;;;;;4725778;30;20044;-89
2022/05/22 14:21:10;;;;;;;7.32;4.60;;;29.50;99.90;;;;;;4726159;30;20032;-90
2022/05/22 14:26:32;;;;;;;6.80;4.53;;;29.40;99.90;;;;;;4754921;30;20043;-92
2022/05/22 14:28:59;;;;;;;5.53;4.53;;;29.40;99.60;;;;;;4724791;30;20138;-91
2022/05/22 14:31:26;;;;;;;8.00;4.50;;;29.40;99.60;;;;;;4726433;30;20060;-92
2022/05/22 14:34:00;;;;;;;4.90;4.28;;;29.40;99.80;;;;;;4725641;30;20032;-91
2022/05/22 14:36:27;;;;;;;4.85;4.40;;;29.40;99.70;;;;;;4725817;30;20064;-91
2022/05/22 14:38:56;;;;;;;8.52;4.75;;;29.20;99.90;;;;;;4739669;30;20036;-91
2022/05/22 14:41:30;;;;;;;5.82;4.40;;;29.20;99.50;;;;;;4725435;30;20494;-90
2022/05/22 14:44:00;;;;;;;6.40;4.18;;;29.20;99.70;;;;;;4725404;30;20063;-90
2022/05/22 14:46:45;;;;;;;7.63;4.80;;;29.10;99.50;;;;;;4725768;30;20063;-90
2022/05/22 14:49:21;;;;;;;4.85;4.35;;;29.40;99.20;;;;;;4740738;30;20036;-90
2022/05/22 14:51:54;;;;;;;4.53;4.10;;;29.30;99.20;;;;;;4740302;30;20290;-89
2022/05/22 14:54:28;;;;;;;7.70;4.63;;;29.20;99.20;;;;;;4740678;30;20032;-90
2022/05/22 14:57:17;;;;;;;6.90;4.82;;;29.20;99.00;;;;;;4727514;30;20076;-90
2022/05/22 15:00:17;;;;;;;5.60;4.57;;;29.00;99.00;;;;;;4757328;30;20507;-92
2022/05/22 15:02:57;;;;;;;4.80;4.40;;;29.00;99.10;;;;;;4731929;30;20059;-91
2022/05/22 15:05:35;;;;;;;8.55;4.18;;;29.30;99.20;;;;;;4767859;30;20028;-90
2022/05/22 15:08:24;;;;;;;7.63;4.32;;;29.30;99.30;;;;;;4730712;30;20048;-91
2022/05/22 15:10:51;;;;;;;6.30;4.65;;;29.60;99.00;;;;;;4725499;30;20039;-90
2022/05/22 15:13:34;;;;;;;4.82;4.30;;;29.40;98.80;;;;;;4724477;30;20040;-90
2022/05/22 15:16:29;;;;;;;7.38;4.70;;;29.20;99.00;;;;;;4725151;30;20403;-89
2022/05/22 15:25:44;;;;;;;6.03;4.60;;;28.80;99.50;;;;;;4754042;30;20471;-91
2022/05/22 15:28:20;;;;;;;6.10;4.70;;;28.80;99.20;;;;;;4739385;30;20039;-89
2022/05/22 15:30:59;;;;;;;13.18;4.30;;;28.70;99.20;;;;;;4754725;30;20130;-91
2022/05/22 15:33:53;;;;;;;4.97;4.50;;;28.70;99.30;;;;;;4742920;30;20043;-91
2022/05/22 15:36:27;;;;;;;12.75;4.50;;;28.90;99.50;;;;;;4726839;30;20047;-89
2022/05/22 15:39:08;;;;;;;5.80;4.70;;;28.70;99.10;;;;;;4725914;30;20038;-92
2022/05/22 15:42:06;;;;;;;6.80;4.25;;;28.60;99.60;;;;;;4724422;30;20032;-90
2022/05/22 15:44:34;;;;;;;4.78;4.30;;;28.60;99.30;;;;;;4724258;30;20035;-93
2022/05/22 15:47:19;;;;;;;5.03;4.55;;;28.70;99.60;;;;;;4725170;30;20039;-92
2022/05/22 15:52:48;;;;;;;7.10;4.53;;;28.50;99.20;;;;;;4753172;30;20047;-92
2022/05/22 15:55:30;;;;;;;5.80;4.18;;;28.50;99.60;;;;;;4724110;30;20101;-91
2022/05/22 15:57:57;;;;;;;4.95;4.32;;;28.30;99.70;;;;;;4724176;30;20059;-92
2022/05/22 16:00:25;;;;;;;4.85;4.45;;;28.40;99.40;;;;;;4723930;30;20119;-91
2022/05/22 16:02:57;;;;;;;5.00;4.50;;;28.40;99.30;;;;;;4723692;30;20040;-91
2022/05/22 16:05:25;;;;;;;8.63;4.85;;;28.50;99.60;;;;;;4723760;30;20032;-90
2022/05/22 16:07:55;;;;;;;6.85;4.70;;;28.50;99.40;;;;;;4726196;30;20036;-92
2022/05/22 16:10:34;;;;;;;5.07;4.60;;;28.40;99.40;;;;;;4725074;30;20395;-92
2022/05/22 16:13:01;;;;;;;4.72;4.30;;;28.30;99.70;;;;;;4724129;30;20051;-92
2022/05/22 16:15:29;;;;;;;8.90;5.18;;;28.30;99.90;;;;;;4739595;30;20047;-90
2022/05/22 16:18:04;;;;;;;5.00;4.50;;;28.30;99.90;;;;;;4740335;30;20123;-91
2022/05/22 16:20:37;;;;;;;6.47;4.60;;;28.10;99.90;;;;;;4724602;30;20055;-94
2022/05/22 16:23:07;;;;;;;6.57;4.75;;;27.80;99.90;;;;;;4724743;30;20055;-92
2022/05/22 16:25:34;;;;;;;7.93;4.70;;;27.70;99.90;;;;;;4723381;30;20036;-91
2022/05/22 16:28:04;;;;;;;8.20;4.35;;;27.60;99.90;;;;;;4724181;30;20036;-92
2022/05/22 16:30:32;;;;;;;5.57;4.03;;;27.50;99.90;;;;;;4723363;30;20047;-91
2022/05/22 16:32:59;;;;;;;5.03;3.97;;;27.50;99.90;;;;;;4723453;30;20070;-93
2022/05/22 16:35:29;;;;;;;5.93;4.43;;;27.40;99.90;;;;;;4740280;30;20032;-90
2022/05/22 16:37:56;;;;;;;5.57;4.30;;;27.40;99.90;;;;;;4728686;30;20032;-91
2022/05/22 16:40:23;;;;;;;5.45;4.22;;;27.30;99.90;;;;;;4727290;30;20086;-91
2022/05/22 16:42:50;;;;;;;5.45;4.18;;;27.20;99.90;;;;;;4724882;30;20064;-92
2022/05/22 16:45:17;;;;;;;5.78;4.05;;;27.20;99.90;;;;;;4726940;30;20119;-92
2022/05/22 16:53:25;;;;;;;8.20;4.55;;;27.10;99.90;;;;;;4757984;30;20039;-90
2022/05/22 16:55:55;;;;;;;7.20;4.35;;;27.10;99.90;;;;;;4729458;30;20132;-91
2022/05/22 16:58:32;;;;;;;7.82;4.18;;;27.00;99.90;;;;;;4730139;30;20135;-90
2022/05/22 17:01:05;;;;;;;5.90;3.55;;;26.90;99.90;;;;;;4726869;30;20063;-90
2022/05/22 17:03:40;;;;;;;4.65;3.72;;;26.90;99.90;;;;;;4726456;30;20048;-91
2022/05/22 17:06:11;;;;;;;4.18;3.70;;;26.80;99.90;;;;;;4726713;30;20043;-91
2022/05/22 17:08:44;;;;;;;4.70;3.72;;;26.80;99.90;;;;;;4726333;30;20040;-90
2022/05/22 17:12:08;;;;;;;3.95;3.53;;;26.70;99.90;;;;;;4740858;30;20082;-90
2022/05/22 17:14:36;;;;;;;6.03;3.78;;;26.70;99.90;;;;;;4702552;30;20026;-90
2022/05/22 17:17:07;;;;;;;7.85;3.97;;;26.70;99.90;;;;;;4702576;30;20045;-90
2022/05/22 17:19:35;;;;;;;6.20;3.75;;;26.70;99.90;;;;;;4715406;30;20079;-92
2022/05/22 17:22:13;;;;;;;8.15;3.75;;;26.80;99.90;;;;;;4726052;30;20050;-85
2022/05/22 17:24:45;;;;;;;9.77;4.15;;;26.80;99.90;;;;;;4744216;30;20041;-91
2022/05/22 17:27:23;;;;;;;7.05;4.10;;;26.80;99.90;;;;;;4749369;30;20039;-90
2022/05/22 17:29:49;;;;;;;7.93;4.20;;;26.80;99.90;;;;;;4722722;30;20035;-91
2022/05/22 17:32:16;;;;;;;7.70;4.07;;;26.60;99.90;;;;;;4738258;30;20039;-89
2022/05/22 17:34:46;;;;;;;6.53;4.25;;;26.70;99.90;;;;;;4732228;30;20032;-89
2022/05/22 17:37:34;;;;;;;11.00;4.30;;;26.70;99.90;;;;;;4723712;30;20041;-88
2022/05/22 17:40:18;;;;;;;7.13;3.90;;;26.60;99.90;;;;;;4722104;30;20028;-88
2022/05/22 17:42:44;;;;;;;5.63;4.07;;;26.60;99.90;;;;;;4736847;30;20040;-90
2022/05/22 17:45:11;;;;;;;4.82;3.70;;;26.50;99.90;;;;;;4730524;30;20024;-90
2022/05/22 17:47:38;;;;;;;11.38;3.53;;;26.40;99.90;;;;;;4730919;30;20076;-88
2022/05/22 17:50:06;;;;;;;7.43;3.85;;;26.40;99.90;;;;;;4729312;30;20028;-90
2022/05/22 17:52:34;;;;;;;8.32;4.30;;;26.30;99.90;;;;;;4737263;30;20502;-89
2022/05/22 17:55:01;;;;;;;6.20;4.47;;;26.20;99.90;;;;;;4723477;30;20055;-88
2022/05/22 17:57:30;;;;;;;8.23;4.72;;;26.10;99.90;;;;;;4723427;30;20128;-89
2022/05/22 17:59:58;;;;;;;14.43;5.45;;;26.00;99.90;;;;;;4723249;30;20491;-88
2022/05/22 18:02:26;;;;;;;8.75;5.53;;;25.90;99.90;;;;;;4736545;30;20051;-90
2022/05/22 18:04:53;;;;;;;9.20;4.85;;;25.80;99.90;;;;;;4736723;30;20036;-91
2022/05/22 18:07:27;;;;;;;8.50;4.88;;;25.70;99.90;;;;;;4723895;30;20060;-91
2022/05/22 18:10:02;;;;;;;10.88;5.28;;;25.60;99.90;;;;;;4746888;30;20058;-89
2022/05/22 18:18:05;;;;;;;7.78;4.80;;;25.20;99.90;;;;;;4750219;30;20033;-90
2022/05/22 18:20:36;;;;;;;11.35;5.95;;;25.10;99.90;;;;;;4751483;30;20042;-92
2022/05/22 18:23:07;;;;;;;8.07;4.90;;;25.00;99.90;;;;;;4727241;30;20045;-89
2022/05/22 18:25:36;;;;;;;9.05;5.47;;;25.00;99.90;;;;;;4725224;30;20032;-89
2022/05/22 18:28:32;;;;;;;10.90;4.70;;;24.90;99.90;;;;;;4729006;30;20123;-86
2022/05/22 18:31:14;;;;;;;10.52;5.38;;;24.80;99.90;;;;;;4740625;30;20064;-86
2022/05/22 18:33:41;;;;;;;7.53;5.43;;;24.70;99.90;;;;;;4737818;30;20040;-89
2022/05/22 18:36:10;;;;;;;7.60;4.70;;;24.70;99.90;;;;;;4707677;30;20647;-91
2022/05/22 18:38:37;;;;;;;8.63;4.95;;;24.60;99.90;;;;;;4707336;30;20037;-86
2022/05/22 18:41:23;;;;;;;6.40;4.75;;;24.50;99.90;;;;;;4707158;30;20067;-87
2022/05/22 18:43:57;;;;;;;11.20;5.65;;;24.50;99.90;;;;;;4707907;30;20075;-86
2022/05/22 18:46:38;;;;;;;9.38;4.70;;;24.40;99.90;;;;;;4708716;30;20090;-87
2022/05/22 18:49:09;;;;;;;9.40;4.97;;;24.30;99.90;;;;;;4729361;30;20040;-88
2022/05/22 18:51:41;;;;;;;8.05;4.72;;;24.20;99.90;;;;;;4723781;30;20037;-90
2022/05/22 21:59:33;;;;;;;6.80;3.72;;;20.20;99.90;;;;;;5421686;24;20063;-89
2022/05/22 22:02:03;;;;;;;7.82;3.92;;;20.20;99.90;;;;;;4760724;30;20044;-89
2022/05/22 22:04:29;;;;;;;5.57;3.40;;;20.20;99.90;;;;;;4771879;30;20046;-88
2022/05/22 22:07:01;;;;;;;7.28;3.50;;;20.00;99.90;;;;;;4772390;30;20059;-90
2022/05/22 22:09:28;;;;;;;9.25;3.50;;;20.00;99.90;;;;;;4779939;30;20039;-92
2022/05/22 22:11:55;;;;;;;7.57;3.65;;;20.00;99.90;;;;;;4775218;30;20031;-91
2022/05/22 22:14:21;;;;;;;9.88;3.75;;;20.00;99.90;;;;;;4775774;30;20071;-91
2022/05/22 22:16:48;;;;;;;4.65;2.90;;;20.00;99.90;;;;;;4775681;30;20027;-92
2022/05/22 22:19:15;;;;;;;11.80;3.55;;;20.00;99.90;;;;;;4775075;30;20054;-92
2022/05/22 22:21:42;;;;;;;9.95;3.80;;;19.90;99.90;;;;;;4774925;30;20085;-93
2022/05/22 22:24:15;;;;;;;9.20;3.70;;;19.90;99.90;;;;;;4774774;30;20040;-92
2022/05/22 22:26:51;;;;;;;8.57;2.90;;;19.90;99.90;;;;;;4773797;30;20127;-92
2022/05/22 22:29:24;;;;;;;8.40;3.85;;;19.90;99.90;;;;;;4774605;30;20108;-92
2022/05/22 22:31:52;;;;;;;9.23;3.53;;;19.90;99.90;;;;;;4773921;30;20063;-92
2022/05/22 22:34:22;;;;;;;6.85;3.17;;;20.00;99.90;;;;;;4774159;30;20039;-92
2022/05/22 22:36:52;;;;;;;6.10;3.10;;;20.00;99.90;;;;;;4773706;30;20118;-92
2022/05/22 22:39:37;;;;;;;8.50;3.15;;;20.00;99.90;;;;;;4774994;30;20056;-91
2022/05/22 22:42:04;;;;;;;4.40;2.90;;;20.00;99.90;;;;;;4775331;30;20093;-91
2022/05/22 22:44:34;;;;;;;5.85;3.00;;;20.00;99.90;;;;;;4777169;30;20047;-92
2022/05/22 22:47:01;;;;;;;8.00;3.42;;;19.90;99.90;;;;;;4774951;30;20044;-92
2022/05/22 22:49:28;;;;;;;7.32;3.30;;;19.90;99.90;;;;;;4771748;30;20039;-91
2022/05/22 22:51:54;;;;;;;10.23;3.35;;;19.80;99.90;;;;;;4772774;30;20043;-92
2022/05/22 23:00:13;;;;;;;4.63;2.97;;;19.80;99.90;;;;;;4774879;30;20066;-92
2022/05/22 23:02:40;;;;;;;6.82;3.20;;;20.00;99.90;;;;;;4758359;30;20056;-90
2022/05/22 23:05:12;;;;;;;5.78;3.17;;;20.00;99.90;;;;;;4772779;30;20616;-92
2022/05/22 23:07:39;;;;;;;8.15;3.63;;;19.90;99.90;;;;;;4772692;30;20136;-91
2022/05/22 23:10:07;;;;;;;7.63;3.40;;;19.80;99.90;;;;;;4774415;30;20482;-91
2022/05/22 23:12:40;;;;;;;6.97;3.50;;;19.70;99.90;;;;;;4773003;30;20398;-92
2022/05/22 23:15:12;;;;;;;4.88;3.10;;;19.60;99.90;;;;;;4772934;30;20051;-91
2022/05/22 23:17:38;;;;;;;7.82;3.50;;;19.60;99.90;;;;;;4772754;30;20047;-91
2022/05/22 23:20:06;;;;;;;7.38;3.47;;;19.60;99.90;;;;;;4773403;30;20036;-92
2022/05/22 23:22:33;;;;;;;7.57;3.45;;;19.50;99.90;;;;;;4772785;30;20052;-90
2022/05/22 23:25:02;;;;;;;9.90;3.45;;;19.50;99.90;;;;;;4775052;30;20035;-92
2022/05/22 23:27:39;;;;;;;9.50;3.90;;;19.50;99.90;;;;;;4774344;30;20082;-91
2022/05/22 23:30:07;;;;;;;6.50;3.50;;;19.50;99.90;;;;;;4759905;30;20108;-91
2022/05/22 23:32:33;;;;;;;6.47;3.15;;;19.50;99.90;;;;;;4774890;30;20087;-92
2022/05/22 23:35:00;;;;;;;8.95;3.45;;;19.50;99.90;;;;;;4775114;30;20040;-91
2022/05/22 23:37:27;;;;;;;10.93;4.80;;;19.40;99.90;;;;;;4757119;30;20043;-91
2022/05/22 23:39:56;;;;;;;8.13;3.45;;;19.40;99.90;;;;;;4758704;30;20184;-91
2022/05/22 23:42:24;;;;;;;8.05;4.30;;;19.30;99.90;;;;;;4754765;30;20063;-90
2022/05/22 23:44:50;;;;;;;7.85;3.28;;;19.30;99.90;;;;;;4754265;30;20027;-91
2022/05/22 23:47:23;;;;;;;10.18;4.40;;;19.30;99.90;;;;;;4754781;30;20101;-92
2022/05/22 23:49:50;;;;;;;6.63;3.72;;;19.20;99.90;;;;;;4754419;30;20467;-92
2022/05/22 23:52:23;;;;;;;5.85;4.15;;;19.20;99.90;;;;;;4754898;30;20052;-91
2022/05/22 23:54:53;;;;;;;7.13;4.15;;;19.10;99.90;;;;;;4755916;30;20125;-92
2022/05/22 23:57:22;;;;;;;7.38;4.57;;;19.10;99.90;;;;;;4755576;30;20081;-91
2022/05/22 23:59:50;;;;;;;7.47;4.57;;;19.10;99.90;;;;;;4746264;30;20530;-93
